sensor_id;sensor_type;location;lat;lon;timestamp;P1;durP1;ratioP1;P2;durP2;ratioP2
21148;SDS011;10732;51.472;6.466;2023-02-13T00:01:15;44.55;;;28.83;;
21148;SDS011;10732;51.472;6.466;2023-02-13T00:03:41;42.22;;;26.92;;
21148;SDS011;10732;51.472;6.466;2023-02-13T00:06:07;47.10;;;28.52;;
21148;SDS011;10732;51.472;6.466;2023-02-13T00:08:33;45.40;;;27.80;;
21148;SDS011;10732;51.472;6.466;2023-02-13T00:10:59;50.53;;;30.83;;
21148;SDS011;10732;51.472;6.466;2023-02-13T00:13:25;46.08;;;28.98;;
21148;SDS011;10732;51.472;6.466;2023-02-13T00:15:54;44.90;;;28.48;;
21148;SDS011;10732;51.472;6.466;2023-02-13T00:18:24;51.13;;;31.08;;
21148;SDS011;10732;51.472;6.466;2023-02-13T00:21:00;47.88;;;29.75;;
21148;SDS011;10732;51.472;6.466;2023-02-13T00:23:35;43.92;;;28.05;;
21148;SDS011;10732;51.472;6.466;2023-02-13T00:26:09;45.58;;;28.45;;
21148;SDS011;10732;51.472;6.466;2023-02-13T00:28:36;40.10;;;24.92;;
21148;SDS011;10732;51.472;6.466;2023-02-13T00:31:06;41.38;;;24.42;;
21148;SDS011;10732;51.472;6.466;2023-02-13T00:33:37;38.50;;;23.92;;
21148;SDS011;10732;51.472;6.466;2023-02-13T00:36:36;35.20;;;21.63;;
21148;SDS011;10732;51.472;6.466;2023-02-13T00:38:55;32.30;;;19.25;;
21148;SDS011;10732;51.472;6.466;2023-02-13T00:41:20;26.00;;;16.48;;
21148;SDS011;10732;51.472;6.466;2023-02-13T00:43:47;24.25;;;15.68;;
21148;SDS011;10732;51.472;6.466;2023-02-13T00:46:13;23.90;;;14.82;;
21148;SDS011;10732;51.472;6.466;2023-02-13T00:48:39;21.88;;;14.50;;
21148;SDS011;10732;51.472;6.466;2023-02-13T00:51:05;21.58;;;14.80;;
21148;SDS011;10732;51.472;6.466;2023-02-13T00:53:31;18.90;;;13.80;;
21148;SDS011;10732;51.472;6.466;2023-02-13T00:55:57;18.83;;;12.55;;
21148;SDS011;10732;51.472;6.466;2023-02-13T00:58:22;16.05;;;11.77;;
21148;SDS011;10732;51.472;6.466;2023-02-13T01:00:48;19.92;;;12.95;;
21148;SDS011;10732;51.472;6.466;2023-02-13T01:03:16;16.95;;;11.45;;
21148;SDS011;10732;51.472;6.466;2023-02-13T01:05:42;16.77;;;11.73;;
21148;SDS011;10732;51.472;6.466;2023-02-13T01:08:08;14.77;;;11.05;;
21148;SDS011;10732;51.472;6.466;2023-02-13T01:10:35;19.88;;;13.27;;
21148;SDS011;10732;51.472;6.466;2023-02-13T01:13:02;19.85;;;13.68;;
21148;SDS011;10732;51.472;6.466;2023-02-13T01:15:27;17.75;;;12.48;;
21148;SDS011;10732;51.472;6.466;2023-02-13T01:17:53;19.00;;;13.52;;
21148;SDS011;10732;51.472;6.466;2023-02-13T01:20:21;18.45;;;12.98;;
21148;SDS011;10732;51.472;6.466;2023-02-13T01:22:47;17.77;;;12.07;;
21148;SDS011;10732;51.472;6.466;2023-02-13T01:25:13;17.08;;;11.80;;
21148;SDS011;10732;51.472;6.466;2023-02-13T01:27:39;17.23;;;11.45;;
21148;SDS011;10732;51.472;6.466;2023-02-13T01:30:05;18.40;;;11.85;;
21148;SDS011;10732;51.472;6.466;2023-02-13T01:32:37;18.70;;;11.93;;
21148;SDS011;10732;51.472;6.466;2023-02-13T01:35:04;18.35;;;11.95;;
21148;SDS011;10732;51.472;6.466;2023-02-13T01:37:30;15.77;;;11.40;;
21148;SDS011;10732;51.472;6.466;2023-02-13T01:39:55;17.10;;;11.10;;
21148;SDS011;10732;51.472;6.466;2023-02-13T01:42:23;19.65;;;12.48;;
21148;SDS011;10732;51.472;6.466;2023-02-13T01:44:51;18.35;;;12.30;;
21148;SDS011;10732;51.472;6.466;2023-02-13T01:47:29;17.15;;;11.73;;
21148;SDS011;10732;51.472;6.466;2023-02-13T01:50:16;18.30;;;11.80;;
21148;SDS011;10732;51.472;6.466;2023-02-13T01:52:48;19.80;;;12.32;;
21148;SDS011;10732;51.472;6.466;2023-02-13T01:55:21;17.65;;;12.10;;
21148;SDS011;10732;51.472;6.466;2023-02-13T01:57:50;17.08;;;11.55;;
21148;SDS011;10732;51.472;6.466;2023-02-13T02:00:18;17.58;;;11.60;;
21148;SDS011;10732;51.472;6.466;2023-02-13T02:03:30;18.08;;;12.40;;
21148;SDS011;10732;51.472;6.466;2023-02-13T02:05:37;20.33;;;11.65;;
21148;SDS011;10732;51.472;6.466;2023-02-13T02:08:04;18.83;;;12.23;;
21148;SDS011;10732;51.472;6.466;2023-02-13T02:10:32;20.35;;;12.73;;
21148;SDS011;10732;51.472;6.466;2023-02-13T02:15:37;18.10;;;12.38;;
21148;SDS011;10732;51.472;6.466;2023-02-13T02:18:20;22.10;;;13.82;;
21148;SDS011;10732;51.472;6.466;2023-02-13T02:21:32;20.63;;;13.98;;
21148;SDS011;10732;51.472;6.466;2023-02-13T02:24:02;19.65;;;13.35;;
21148;SDS011;10732;51.472;6.466;2023-02-13T02:31:53;18.98;;;13.48;;
21148;SDS011;10732;51.472;6.466;2023-02-13T02:34:55;21.45;;;13.63;;
21148;SDS011;10732;51.472;6.466;2023-02-13T02:46:09;19.77;;;13.40;;
21148;SDS011;10732;51.472;6.466;2023-02-13T02:48:52;24.58;;;14.68;;
21148;SDS011;10732;51.472;6.466;2023-02-13T02:51:41;19.85;;;13.43;;
21148;SDS011;10732;51.472;6.466;2023-02-13T02:54:29;22.08;;;14.07;;
21148;SDS011;10732;51.472;6.466;2023-02-13T02:57:23;22.35;;;14.35;;
21148;SDS011;10732;51.472;6.466;2023-02-13T03:00:17;21.15;;;14.00;;
21148;SDS011;10732;51.472;6.466;2023-02-13T03:03:04;21.98;;;14.07;;
21148;SDS011;10732;51.472;6.466;2023-02-13T03:05:52;21.27;;;14.52;;
21148;SDS011;10732;51.472;6.466;2023-02-13T03:08:38;21.95;;;14.75;;
21148;SDS011;10732;51.472;6.466;2023-02-13T03:11:26;22.13;;;15.13;;
21148;SDS011;10732;51.472;6.466;2023-02-13T03:14:10;21.00;;;14.15;;
21148;SDS011;10732;51.472;6.466;2023-02-13T03:16:40;22.90;;;15.45;;
21148;SDS011;10732;51.472;6.466;2023-02-13T03:22:27;22.48;;;14.90;;
21148;SDS011;10732;51.472;6.466;2023-02-13T03:27:45;21.27;;;14.30;;
21148;SDS011;10732;51.472;6.466;2023-02-13T03:33:30;21.95;;;14.82;;
21148;SDS011;10732;51.472;6.466;2023-02-13T03:44:53;23.10;;;14.93;;
21148;SDS011;10732;51.472;6.466;2023-02-13T03:47:41;25.48;;;15.73;;
21148;SDS011;10732;51.472;6.466;2023-02-13T03:50:09;22.38;;;15.20;;
21148;SDS011;10732;51.472;6.466;2023-02-13T03:55:15;24.23;;;15.13;;
21148;SDS011;10732;51.472;6.466;2023-02-13T03:58:25;22.02;;;14.88;;
21148;SDS011;10732;51.472;6.466;2023-02-13T04:01:17;24.50;;;15.18;;
21148;SDS011;10732;51.472;6.466;2023-02-13T04:06:15;24.50;;;16.25;;
21148;SDS011;10732;51.472;6.466;2023-02-13T04:08:44;23.80;;;15.80;;
21148;SDS011;10732;51.472;6.466;2023-02-13T04:14:00;26.75;;;16.58;;
21148;SDS011;10732;51.472;6.466;2023-02-13T04:17:05;23.38;;;15.32;;
21148;SDS011;10732;51.472;6.466;2023-02-13T04:19:27;24.80;;;15.38;;
21148;SDS011;10732;51.472;6.466;2023-02-13T04:21:55;25.92;;;17.13;;
21148;SDS011;10732;51.472;6.466;2023-02-13T04:24:23;23.35;;;15.57;;
21148;SDS011;10732;51.472;6.466;2023-02-13T04:26:50;24.23;;;15.73;;
21148;SDS011;10732;51.472;6.466;2023-02-13T04:29:16;28.20;;;16.80;;
21148;SDS011;10732;51.472;6.466;2023-02-13T04:31:41;22.33;;;15.95;;
21148;SDS011;10732;51.472;6.466;2023-02-13T04:34:07;23.52;;;15.98;;
21148;SDS011;10732;51.472;6.466;2023-02-13T04:36:33;24.42;;;16.13;;
21148;SDS011;10732;51.472;6.466;2023-02-13T04:38:58;23.08;;;15.15;;
21148;SDS011;10732;51.472;6.466;2023-02-13T04:41:24;27.70;;;17.20;;
21148;SDS011;10732;51.472;6.466;2023-02-13T04:43:49;24.70;;;16.20;;
21148;SDS011;10732;51.472;6.466;2023-02-13T04:46:16;25.38;;;16.50;;
21148;SDS011;10732;51.472;6.466;2023-02-13T04:48:42;26.50;;;16.98;;
21148;SDS011;10732;51.472;6.466;2023-02-13T04:51:08;26.65;;;17.25;;
21148;SDS011;10732;51.472;6.466;2023-02-13T04:53:33;26.58;;;17.80;;
21148;SDS011;10732;51.472;6.466;2023-02-13T04:55:59;25.60;;;16.17;;
21148;SDS011;10732;51.472;6.466;2023-02-13T04:58:24;23.95;;;16.52;;
21148;SDS011;10732;51.472;6.466;2023-02-13T05:00:50;26.02;;;17.17;;
21148;SDS011;10732;51.472;6.466;2023-02-13T05:03:15;26.17;;;17.02;;
21148;SDS011;10732;51.472;6.466;2023-02-13T05:05:41;27.55;;;17.85;;
21148;SDS011;10732;51.472;6.466;2023-02-13T05:08:07;32.33;;;19.45;;
21148;SDS011;10732;51.472;6.466;2023-02-13T05:10:34;32.42;;;20.73;;
21148;SDS011;10732;51.472;6.466;2023-02-13T05:13:00;28.75;;;18.85;;
21148;SDS011;10732;51.472;6.466;2023-02-13T05:15:26;28.38;;;18.98;;
21148;SDS011;10732;51.472;6.466;2023-02-13T05:17:52;30.55;;;19.08;;
21148;SDS011;10732;51.472;6.466;2023-02-13T05:20:17;27.35;;;18.27;;
21148;SDS011;10732;51.472;6.466;2023-02-13T05:22:46;29.23;;;19.25;;
21148;SDS011;10732;51.472;6.466;2023-02-13T05:25:34;31.90;;;19.42;;
21148;SDS011;10732;51.472;6.466;2023-02-13T05:28:01;29.05;;;18.98;;
21148;SDS011;10732;51.472;6.466;2023-02-13T05:30:28;30.60;;;20.20;;
21148;SDS011;10732;51.472;6.466;2023-02-13T05:32:53;30.10;;;20.25;;
21148;SDS011;10732;51.472;6.466;2023-02-13T05:35:19;32.92;;;21.45;;
21148;SDS011;10732;51.472;6.466;2023-02-13T05:37:46;33.03;;;20.77;;
21148;SDS011;10732;51.472;6.466;2023-02-13T05:40:12;30.48;;;20.52;;
21148;SDS011;10732;51.472;6.466;2023-02-13T05:42:38;31.77;;;21.25;;
21148;SDS011;10732;51.472;6.466;2023-02-13T05:45:05;37.17;;;22.98;;
21148;SDS011;10732;51.472;6.466;2023-02-13T05:47:31;36.38;;;22.48;;
21148;SDS011;10732;51.472;6.466;2023-02-13T05:49:56;36.10;;;21.60;;
21148;SDS011;10732;51.472;6.466;2023-02-13T05:52:22;33.28;;;21.70;;
21148;SDS011;10732;51.472;6.466;2023-02-13T05:54:47;32.25;;;21.42;;
21148;SDS011;10732;51.472;6.466;2023-02-13T05:57:13;33.60;;;21.58;;
21148;SDS011;10732;51.472;6.466;2023-02-13T05:59:38;34.70;;;21.70;;
21148;SDS011;10732;51.472;6.466;2023-02-13T06:02:04;34.67;;;21.85;;
21148;SDS011;10732;51.472;6.466;2023-02-13T06:04:30;33.15;;;21.08;;
21148;SDS011;10732;51.472;6.466;2023-02-13T06:06:55;36.13;;;22.50;;
21148;SDS011;10732;51.472;6.466;2023-02-13T06:09:21;35.15;;;22.48;;
21148;SDS011;10732;51.472;6.466;2023-02-13T06:11:47;40.53;;;23.80;;
21148;SDS011;10732;51.472;6.466;2023-02-13T06:14:12;36.35;;;22.73;;
21148;SDS011;10732;51.472;6.466;2023-02-13T06:16:38;41.50;;;25.27;;
21148;SDS011;10732;51.472;6.466;2023-02-13T06:19:04;41.50;;;24.98;;
21148;SDS011;10732;51.472;6.466;2023-02-13T06:21:30;43.50;;;24.75;;
21148;SDS011;10732;51.472;6.466;2023-02-13T06:23:57;41.10;;;23.90;;
21148;SDS011;10732;51.472;6.466;2023-02-13T06:26:23;43.80;;;25.52;;
21148;SDS011;10732;51.472;6.466;2023-02-13T06:28:48;39.00;;;23.17;;
21148;SDS011;10732;51.472;6.466;2023-02-13T06:31:14;39.35;;;24.13;;
21148;SDS011;10732;51.472;6.466;2023-02-13T06:33:40;40.17;;;23.33;;
21148;SDS011;10732;51.472;6.466;2023-02-13T06:36:06;36.70;;;23.02;;
21148;SDS011;10732;51.472;6.466;2023-02-13T06:38:31;40.45;;;24.10;;
21148;SDS011;10732;51.472;6.466;2023-02-13T06:40:58;36.47;;;23.05;;
21148;SDS011;10732;51.472;6.466;2023-02-13T06:43:25;38.95;;;24.20;;
21148;SDS011;10732;51.472;6.466;2023-02-13T06:45:51;40.10;;;23.52;;
21148;SDS011;10732;51.472;6.466;2023-02-13T06:48:17;38.42;;;23.58;;
21148;SDS011;10732;51.472;6.466;2023-02-13T06:50:43;42.33;;;25.58;;
21148;SDS011;10732;51.472;6.466;2023-02-13T06:53:09;34.88;;;23.17;;
21148;SDS011;10732;51.472;6.466;2023-02-13T06:55:34;37.70;;;23.38;;
21148;SDS011;10732;51.472;6.466;2023-02-13T06:58:00;36.53;;;23.25;;
21148;SDS011;10732;51.472;6.466;2023-02-13T07:00:26;38.08;;;23.40;;
21148;SDS011;10732;51.472;6.466;2023-02-13T07:02:51;36.17;;;23.10;;
21148;SDS011;10732;51.472;6.466;2023-02-13T07:05:17;39.13;;;24.33;;
21148;SDS011;10732;51.472;6.466;2023-02-13T07:07:43;36.17;;;23.45;;
21148;SDS011;10732;51.472;6.466;2023-02-13T07:10:09;34.95;;;22.40;;
21148;SDS011;10732;51.472;6.466;2023-02-13T07:12:36;40.00;;;24.65;;
21148;SDS011;10732;51.472;6.466;2023-02-13T07:15:03;38.00;;;23.33;;
21148;SDS011;10732;51.472;6.466;2023-02-13T07:17:29;34.72;;;23.00;;
21148;SDS011;10732;51.472;6.466;2023-02-13T07:19:55;39.63;;;24.67;;
21148;SDS011;10732;51.472;6.466;2023-02-13T07:22:21;36.25;;;23.40;;
21148;SDS011;10732;51.472;6.466;2023-02-13T07:24:46;40.40;;;24.85;;
21148;SDS011;10732;51.472;6.466;2023-02-13T07:27:12;36.22;;;23.70;;
21148;SDS011;10732;51.472;6.466;2023-02-13T07:29:37;35.25;;;22.90;;
21148;SDS011;10732;51.472;6.466;2023-02-13T07:32:03;34.05;;;22.13;;
21148;SDS011;10732;51.472;6.466;2023-02-13T07:34:29;47.03;;;28.58;;
21148;SDS011;10732;51.472;6.466;2023-02-13T07:36:54;45.50;;;27.75;;
21148;SDS011;10732;51.472;6.466;2023-02-13T07:39:20;44.30;;;27.60;;
21148;SDS011;10732;51.472;6.466;2023-02-13T07:41:45;48.72;;;28.60;;
21148;SDS011;10732;51.472;6.466;2023-02-13T07:44:11;46.95;;;27.63;;
21148;SDS011;10732;51.472;6.466;2023-02-13T07:46:36;50.17;;;28.98;;
21148;SDS011;10732;51.472;6.466;2023-02-13T07:49:02;44.08;;;28.23;;
21148;SDS011;10732;51.472;6.466;2023-02-13T07:51:27;51.65;;;29.83;;
21148;SDS011;10732;51.472;6.466;2023-02-13T07:53:53;43.53;;;26.35;;
21148;SDS011;10732;51.472;6.466;2023-02-13T07:56:19;42.75;;;27.15;;
21148;SDS011;10732;51.472;6.466;2023-02-13T07:58:44;43.78;;;26.90;;
21148;SDS011;10732;51.472;6.466;2023-02-13T08:01:11;44.90;;;25.55;;
21148;SDS011;10732;51.472;6.466;2023-02-13T08:03:38;40.88;;;25.92;;
21148;SDS011;10732;51.472;6.466;2023-02-13T08:06:05;39.25;;;24.63;;
21148;SDS011;10732;51.472;6.466;2023-02-13T08:08:31;37.90;;;25.20;;
21148;SDS011;10732;51.472;6.466;2023-02-13T08:11:01;39.88;;;22.95;;
21148;SDS011;10732;51.472;6.466;2023-02-13T08:13:48;33.33;;;22.63;;
21148;SDS011;10732;51.472;6.466;2023-02-13T08:16:14;31.85;;;21.60;;
21148;SDS011;10732;51.472;6.466;2023-02-13T08:18:39;29.20;;;20.88;;
21148;SDS011;10732;51.472;6.466;2023-02-13T08:21:05;30.25;;;20.75;;
21148;SDS011;10732;51.472;6.466;2023-02-13T08:23:31;29.88;;;19.73;;
21148;SDS011;10732;51.472;6.466;2023-02-13T08:26:00;28.42;;;19.20;;
21148;SDS011;10732;51.472;6.466;2023-02-13T08:28:26;26.23;;;18.58;;
21148;SDS011;10732;51.472;6.466;2023-02-13T08:30:52;23.58;;;16.27;;
21148;SDS011;10732;51.472;6.466;2023-02-13T08:33:18;26.83;;;14.63;;
21148;SDS011;10732;51.472;6.466;2023-02-13T08:35:44;17.30;;;12.90;;
21148;SDS011;10732;51.472;6.466;2023-02-13T08:38:10;17.63;;;13.20;;
21148;SDS011;10732;51.472;6.466;2023-02-13T08:40:35;15.93;;;12.20;;
21148;SDS011;10732;51.472;6.466;2023-02-13T08:43:01;16.75;;;12.50;;
21148;SDS011;10732;51.472;6.466;2023-02-13T08:45:28;15.60;;;12.77;;
21148;SDS011;10732;51.472;6.466;2023-02-13T08:47:55;14.45;;;12.05;;
21148;SDS011;10732;51.472;6.466;2023-02-13T08:50:22;14.90;;;11.73;;
21148;SDS011;10732;51.472;6.466;2023-02-13T08:52:47;14.77;;;11.88;;
21148;SDS011;10732;51.472;6.466;2023-02-13T08:55:13;13.45;;;11.75;;
21148;SDS011;10732;51.472;6.466;2023-02-13T08:57:39;13.80;;;11.52;;
21148;SDS011;10732;51.472;6.466;2023-02-13T09:00:04;13.23;;;11.82;;
21148;SDS011;10732;51.472;6.466;2023-02-13T09:02:30;14.65;;;11.60;;
21148;SDS011;10732;51.472;6.466;2023-02-13T09:04:56;13.30;;;11.43;;
21148;SDS011;10732;51.472;6.466;2023-02-13T09:07:21;12.77;;;11.10;;
21148;SDS011;10732;51.472;6.466;2023-02-13T09:09:47;13.50;;;11.32;;
21148;SDS011;10732;51.472;6.466;2023-02-13T09:12:12;14.05;;;11.82;;
21148;SDS011;10732;51.472;6.466;2023-02-13T09:14:38;12.73;;;11.40;;
21148;SDS011;10732;51.472;6.466;2023-02-13T09:17:04;14.93;;;11.73;;
21148;SDS011;10732;51.472;6.466;2023-02-13T09:19:29;13.75;;;11.35;;
21148;SDS011;10732;51.472;6.466;2023-02-13T09:21:55;12.18;;;10.60;;
21148;SDS011;10732;51.472;6.466;2023-02-13T09:24:20;13.20;;;10.85;;
21148;SDS011;10732;51.472;6.466;2023-02-13T09:26:46;12.55;;;10.70;;
21148;SDS011;10732;51.472;6.466;2023-02-13T09:29:11;12.23;;;9.73;;
21148;SDS011;10732;51.472;6.466;2023-02-13T09:31:37;12.45;;;11.15;;
21148;SDS011;10732;51.472;6.466;2023-02-13T09:34:02;11.95;;;10.63;;
21148;SDS011;10732;51.472;6.466;2023-02-13T09:36:28;12.75;;;11.20;;
21148;SDS011;10732;51.472;6.466;2023-02-13T09:38:55;11.80;;;10.02;;
21148;SDS011;10732;51.472;6.466;2023-02-13T09:41:25;12.38;;;10.45;;
21148;SDS011;10732;51.472;6.466;2023-02-13T09:43:58;12.80;;;10.60;;
21148;SDS011;10732;51.472;6.466;2023-02-13T09:46:37;13.82;;;10.98;;
21148;SDS011;10732;51.472;6.466;2023-02-13T09:49:10;12.07;;;9.82;;
21148;SDS011;10732;51.472;6.466;2023-02-13T09:51:40;13.45;;;10.52;;
21148;SDS011;10732;51.472;6.466;2023-02-13T09:54:11;13.00;;;10.82;;
21148;SDS011;10732;51.472;6.466;2023-02-13T09:56:59;12.07;;;10.13;;
21148;SDS011;10732;51.472;6.466;2023-02-13T10:02:22;11.50;;;10.00;;
21148;SDS011;10732;51.472;6.466;2023-02-13T10:05:24;12.95;;;11.50;;
21148;SDS011;10732;51.472;6.466;2023-02-13T10:08:39;12.77;;;11.23;;
21148;SDS011;10732;51.472;6.466;2023-02-13T10:14:10;14.15;;;10.82;;
21148;SDS011;10732;51.472;6.466;2023-02-13T10:16:38;13.30;;;11.02;;
21148;SDS011;10732;51.472;6.466;2023-02-13T10:21:45;12.25;;;10.93;;
21148;SDS011;10732;51.472;6.466;2023-02-13T10:24:39;11.93;;;9.45;;
21148;SDS011;10732;51.472;6.466;2023-02-13T10:27:24;12.30;;;9.50;;
21148;SDS011;10732;51.472;6.466;2023-02-13T10:29:56;10.25;;;9.13;;
21148;SDS011;10732;51.472;6.466;2023-02-13T10:32:35;11.60;;;9.68;;
21148;SDS011;10732;51.472;6.466;2023-02-13T10:35:17;10.13;;;8.98;;
21148;SDS011;10732;51.472;6.466;2023-02-13T10:37:46;11.60;;;9.98;;
21148;SDS011;10732;51.472;6.466;2023-02-13T10:40:15;10.32;;;9.18;;
21148;SDS011;10732;51.472;6.466;2023-02-13T10:42:46;10.88;;;9.73;;
21148;SDS011;10732;51.472;6.466;2023-02-13T10:48:36;10.57;;;9.40;;
21148;SDS011;10732;51.472;6.466;2023-02-13T10:51:36;10.85;;;9.10;;
21148;SDS011;10732;51.472;6.466;2023-02-13T11:00:27;11.15;;;9.38;;
21148;SDS011;10732;51.472;6.466;2023-02-13T11:02:59;12.70;;;10.18;;
21148;SDS011;10732;51.472;6.466;2023-02-13T11:08:01;10.50;;;9.25;;
21148;SDS011;10732;51.472;6.466;2023-02-13T11:10:27;12.57;;;9.25;;
21148;SDS011;10732;51.472;6.466;2023-02-13T11:12:53;12.02;;;9.68;;
21148;SDS011;10732;51.472;6.466;2023-02-13T11:15:28;12.13;;;10.60;;
21148;SDS011;10732;51.472;6.466;2023-02-13T11:17:56;10.93;;;9.75;;
21148;SDS011;10732;51.472;6.466;2023-02-13T11:23:17;11.57;;;9.98;;
21148;SDS011;10732;51.472;6.466;2023-02-13T11:26:02;10.23;;;8.77;;
21148;SDS011;10732;51.472;6.466;2023-02-13T11:28:55;10.55;;;8.98;;
21148;SDS011;10732;51.472;6.466;2023-02-13T11:31:26;10.98;;;9.60;;
21148;SDS011;10732;51.472;6.466;2023-02-13T11:33:57;13.93;;;9.95;;
21148;SDS011;10732;51.472;6.466;2023-02-13T11:36:28;10.70;;;9.55;;
21148;SDS011;10732;51.472;6.466;2023-02-13T11:38:59;10.82;;;9.70;;
21148;SDS011;10732;51.472;6.466;2023-02-13T11:41:29;12.38;;;9.48;;
21148;SDS011;10732;51.472;6.466;2023-02-13T11:44:00;10.75;;;9.52;;
21148;SDS011;10732;51.472;6.466;2023-02-13T11:46:29;10.50;;;8.70;;
21148;SDS011;10732;51.472;6.466;2023-02-13T11:49:13;13.80;;;10.02;;
21148;SDS011;10732;51.472;6.466;2023-02-13T11:56:53;14.68;;;11.57;;
21148;SDS011;10732;51.472;6.466;2023-02-13T11:59:21;13.10;;;10.52;;
21148;SDS011;10732;51.472;6.466;2023-02-13T12:02:00;13.70;;;10.73;;
21148;SDS011;10732;51.472;6.466;2023-02-13T12:04:27;12.15;;;10.07;;
21148;SDS011;10732;51.472;6.466;2023-02-13T12:06:57;12.52;;;10.98;;
21148;SDS011;10732;51.472;6.466;2023-02-13T12:09:26;12.82;;;10.20;;
21148;SDS011;10732;51.472;6.466;2023-02-13T12:11:54;14.55;;;11.30;;
21148;SDS011;10732;51.472;6.466;2023-02-13T12:14:26;12.85;;;9.90;;
21148;SDS011;10732;51.472;6.466;2023-02-13T12:17:11;19.73;;;12.32;;
21148;SDS011;10732;51.472;6.466;2023-02-13T12:19:47;15.93;;;11.35;;
21148;SDS011;10732;51.472;6.466;2023-02-13T12:22:17;19.58;;;11.90;;
21148;SDS011;10732;51.472;6.466;2023-02-13T12:33:39;15.77;;;11.23;;
21148;SDS011;10732;51.472;6.466;2023-02-13T12:36:18;16.65;;;11.82;;
21148;SDS011;10732;51.472;6.466;2023-02-13T12:48:09;19.00;;;13.15;;
21148;SDS011;10732;51.472;6.466;2023-02-13T12:56:11;16.90;;;12.30;;
21148;SDS011;10732;51.472;6.466;2023-02-13T13:01:57;18.45;;;12.93;;
21148;SDS011;10732;51.472;6.466;2023-02-13T13:16:05;17.65;;;12.70;;
21148;SDS011;10732;51.472;6.466;2023-02-13T13:19:14;23.13;;;14.02;;
21148;SDS011;10732;51.472;6.466;2023-02-13T13:27:49;22.17;;;13.63;;
21148;SDS011;10732;51.472;6.466;2023-02-13T13:30:27;23.77;;;14.48;;
21148;SDS011;10732;51.472;6.466;2023-02-13T13:35:26;21.75;;;13.88;;
21148;SDS011;10732;51.472;6.466;2023-02-13T13:38:03;22.30;;;13.80;;
21148;SDS011;10732;51.472;6.466;2023-02-13T13:46:03;19.20;;;12.90;;
21148;SDS011;10732;51.472;6.466;2023-02-13T13:48:59;22.73;;;14.48;;
21148;SDS011;10732;51.472;6.466;2023-02-13T13:51:30;25.73;;;14.45;;
21148;SDS011;10732;51.472;6.466;2023-02-13T13:54:16;22.10;;;14.25;;
21148;SDS011;10732;51.472;6.466;2023-02-13T14:05:01;26.80;;;14.38;;
21148;SDS011;10732;51.472;6.466;2023-02-13T14:07:43;22.45;;;13.35;;
21148;SDS011;10732;51.472;6.466;2023-02-13T14:12:48;20.00;;;12.70;;
21148;SDS011;10732;51.472;6.466;2023-02-13T14:17:58;21.08;;;13.20;;
21148;SDS011;10732;51.472;6.466;2023-02-13T14:25:45;22.55;;;12.50;;
21148;SDS011;10732;51.472;6.466;2023-02-13T14:28:18;18.42;;;10.95;;
21148;SDS011;10732;51.472;6.466;2023-02-13T14:30:47;17.73;;;11.05;;
21148;SDS011;10732;51.472;6.466;2023-02-13T14:33:25;18.90;;;11.60;;
21148;SDS011;10732;51.472;6.466;2023-02-13T14:38:56;18.75;;;11.15;;
21148;SDS011;10732;51.472;6.466;2023-02-13T14:44:24;15.75;;;10.20;;
21148;SDS011;10732;51.472;6.466;2023-02-13T14:47:51;17.45;;;11.48;;
21148;SDS011;10732;51.472;6.466;2023-02-13T14:50:01;17.15;;;11.05;;
21148;SDS011;10732;51.472;6.466;2023-02-13T14:52:31;17.67;;;10.52;;
21148;SDS011;10732;51.472;6.466;2023-02-13T14:55:05;18.25;;;10.63;;
21148;SDS011;10732;51.472;6.466;2023-02-13T14:57:38;16.25;;;10.85;;
21148;SDS011;10732;51.472;6.466;2023-02-13T15:02:46;19.13;;;11.40;;
21148;SDS011;10732;51.472;6.466;2023-02-13T15:05:18;16.90;;;11.23;;
21148;SDS011;10732;51.472;6.466;2023-02-13T15:07:48;16.98;;;9.93;;
21148;SDS011;10732;51.472;6.466;2023-02-13T15:13:01;17.48;;;9.82;;
21148;SDS011;10732;51.472;6.466;2023-02-13T15:17:58;17.42;;;11.07;;
21148;SDS011;10732;51.472;6.466;2023-02-13T15:20:27;20.38;;;10.85;;
21148;SDS011;10732;51.472;6.466;2023-02-13T15:22:56;20.23;;;11.23;;
21148;SDS011;10732;51.472;6.466;2023-02-13T15:28:02;17.52;;;11.30;;
21148;SDS011;10732;51.472;6.466;2023-02-13T15:30:30;28.55;;;13.35;;
21148;SDS011;10732;51.472;6.466;2023-02-13T15:33:02;22.58;;;11.75;;
21148;SDS011;10732;51.472;6.466;2023-02-13T15:35:44;20.08;;;11.48;;
21148;SDS011;10732;51.472;6.466;2023-02-13T15:40:56;22.13;;;11.50;;
21148;SDS011;10732;51.472;6.466;2023-02-13T15:43:43;17.70;;;10.68;;
21148;SDS011;10732;51.472;6.466;2023-02-13T15:46:25;20.35;;;11.90;;
21148;SDS011;10732;51.472;6.466;2023-02-13T15:48:55;20.42;;;11.05;;
21148;SDS011;10732;51.472;6.466;2023-02-13T15:51:23;16.63;;;11.13;;
21148;SDS011;10732;51.472;6.466;2023-02-13T15:53:51;21.13;;;11.60;;
21148;SDS011;10732;51.472;6.466;2023-02-13T15:56:44;20.00;;;11.77;;
21148;SDS011;10732;51.472;6.466;2023-02-13T15:59:10;18.58;;;11.27;;
21148;SDS011;10732;51.472;6.466;2023-02-13T16:01:37;19.55;;;10.73;;
21148;SDS011;10732;51.472;6.466;2023-02-13T16:04:08;19.63;;;10.65;;
21148;SDS011;10732;51.472;6.466;2023-02-13T16:06:36;16.90;;;10.55;;
21148;SDS011;10732;51.472;6.466;2023-02-13T16:09:02;18.40;;;10.20;;
21148;SDS011;10732;51.472;6.466;2023-02-13T16:11:39;19.77;;;10.57;;
21148;SDS011;10732;51.472;6.466;2023-02-13T16:19:27;17.85;;;9.88;;
21148;SDS011;10732;51.472;6.466;2023-02-13T16:22:14;18.38;;;9.68;;
21148;SDS011;10732;51.472;6.466;2023-02-13T16:25:08;14.95;;;9.10;;
21148;SDS011;10732;51.472;6.466;2023-02-13T16:27:43;16.73;;;9.05;;
21148;SDS011;10732;51.472;6.466;2023-02-13T16:30:20;19.90;;;10.00;;
21148;SDS011;10732;51.472;6.466;2023-02-13T16:32:47;20.30;;;9.68;;
21148;SDS011;10732;51.472;6.466;2023-02-13T16:35:29;18.75;;;9.35;;
21148;SDS011;10732;51.472;6.466;2023-02-13T16:37:58;16.45;;;9.63;;
21148;SDS011;10732;51.472;6.466;2023-02-13T16:48:42;17.05;;;9.82;;
21148;SDS011;10732;51.472;6.466;2023-02-13T16:51:31;15.35;;;9.73;;
21148;SDS011;10732;51.472;6.466;2023-02-13T16:56:50;18.15;;;10.02;;
21148;SDS011;10732;51.472;6.466;2023-02-13T16:59:23;18.80;;;10.20;;
21148;SDS011;10732;51.472;6.466;2023-02-13T17:07:34;17.27;;;10.50;;
21148;SDS011;10732;51.472;6.466;2023-02-13T17:10:06;19.35;;;9.82;;
21148;SDS011;10732;51.472;6.466;2023-02-13T17:12:42;20.25;;;10.27;;
21148;SDS011;10732;51.472;6.466;2023-02-13T17:15:10;18.33;;;10.63;;
21148;SDS011;10732;51.472;6.466;2023-02-13T17:17:37;15.23;;;10.00;;
21148;SDS011;10732;51.472;6.466;2023-02-13T17:20:03;18.63;;;10.88;;
21148;SDS011;10732;51.472;6.466;2023-02-13T17:25:03;13.65;;;8.88;;
21148;SDS011;10732;51.472;6.466;2023-02-13T17:27:32;17.02;;;10.27;;
21148;SDS011;10732;51.472;6.466;2023-02-13T17:29:58;17.30;;;10.57;;
21148;SDS011;10732;51.472;6.466;2023-02-13T17:32:23;15.45;;;10.05;;
21148;SDS011;10732;51.472;6.466;2023-02-13T17:34:50;16.17;;;10.43;;
21148;SDS011;10732;51.472;6.466;2023-02-13T17:37:34;17.10;;;10.65;;
21148;SDS011;10732;51.472;6.466;2023-02-13T17:40:00;18.05;;;10.32;;
21148;SDS011;10732;51.472;6.466;2023-02-13T17:42:26;19.48;;;10.60;;
21148;SDS011;10732;51.472;6.466;2023-02-13T17:44:53;15.75;;;9.95;;
21148;SDS011;10732;51.472;6.466;2023-02-13T17:47:21;17.80;;;10.35;;
21148;SDS011;10732;51.472;6.466;2023-02-13T17:49:47;17.17;;;10.15;;
21148;SDS011;10732;51.472;6.466;2023-02-13T17:52:14;18.75;;;10.93;;